createdAt,value
2023-01-20T00:01:31.870Z,-0.48
2023-01-20T00:03:59.373Z,-0.55
2023-01-20T00:06:30.092Z,-0.48
2023-01-20T00:09:01.637Z,-0.47
2023-01-20T00:11:29.066Z,-0.49
2023-01-20T00:14:01.779Z,-0.56
2023-01-20T00:16:29.364Z,-0.59
2023-01-20T00:18:56.602Z,-0.59
2023-01-20T00:21:24.194Z,-0.59
2023-01-20T00:23:51.183Z,-0.59
2023-01-20T00:26:21.171Z,-0.63
2023-01-20T00:28:48.930Z,-0.57
2023-01-20T00:31:21.530Z,-0.62
2023-01-20T00:33:50.428Z,-0.68
2023-01-20T00:36:18.709Z,-0.67
2023-01-20T00:38:46.705Z,-0.79
2023-01-20T00:41:14.514Z,-0.70
2023-01-20T00:43:41.488Z,-0.66
2023-01-20T00:46:08.602Z,-0.63
2023-01-20T00:48:36.002Z,-0.69
2023-01-20T00:51:03.631Z,-0.72
2023-01-20T00:53:31.033Z,-0.76
2023-01-20T00:55:58.005Z,-0.68
2023-01-20T00:58:25.203Z,-0.67
2023-01-20T01:00:53.593Z,-0.63
2023-01-20T01:03:20.936Z,-0.64
2023-01-20T01:05:47.835Z,-0.68
2023-01-20T01:08:14.864Z,-0.61
2023-01-20T01:10:41.810Z,-0.54
2023-01-20T01:13:09.403Z,-0.55
2023-01-20T01:15:36.477Z,-0.65
2023-01-20T01:18:03.634Z,-0.63
2023-01-20T01:20:30.791Z,-0.74
2023-01-20T01:22:57.779Z,-0.88
2023-01-20T01:25:24.913Z,-0.86
2023-01-20T01:27:51.653Z,-0.83
2023-01-20T01:30:18.542Z,-0.86
2023-01-20T01:32:45.251Z,-0.85
2023-01-20T01:35:12.495Z,-0.81
2023-01-20T01:37:39.486Z,-0.99
2023-01-20T01:40:07.069Z,-0.95
2023-01-20T01:42:34.154Z,-0.98
2023-01-20T01:45:10.208Z,-0.98
2023-01-20T01:47:44.809Z,-0.98
2023-01-20T01:50:22.699Z,-0.91
2023-01-20T01:52:53.259Z,-0.85
2023-01-20T01:55:25.953Z,-0.85
2023-01-20T01:57:54.484Z,-0.86
2023-01-20T02:00:21.656Z,-0.88
2023-01-20T02:02:49.097Z,-0.91
2023-01-20T02:05:17.597Z,-0.97
2023-01-20T02:07:47.504Z,-1.00
2023-01-20T02:10:15.529Z,-1.02
2023-01-20T02:12:49.378Z,-1.09
2023-01-20T02:15:18.121Z,-1.06
2023-01-20T02:18:01.340Z,-1.12
2023-01-20T02:21:13.397Z,-1.11
2023-01-20T02:23:53.145Z,-0.99
2023-01-20T02:26:51.966Z,-0.99
2023-01-20T02:29:36.218Z,-0.97
2023-01-20T02:32:12.932Z,-0.96
2023-01-20T02:35:02.069Z,-0.97
2023-01-20T02:37:34.257Z,-0.99
2023-01-20T02:40:22.321Z,-0.96
2023-01-20T02:43:00.538Z,-0.92
2023-01-20T02:45:51.911Z,-0.98
2023-01-20T02:48:25.888Z,-0.97
2023-01-20T02:51:13.818Z,-0.90
2023-01-20T02:53:53.945Z,-1.00
2023-01-20T02:56:40.038Z,-0.95
2023-01-20T02:59:12.974Z,-0.98
2023-01-20T03:01:48.584Z,-0.94
2023-01-20T03:04:21.090Z,-0.90
2023-01-20T03:06:52.357Z,-0.90
2023-01-20T03:09:23.732Z,-0.93
2023-01-20T03:11:56.835Z,-1.00
2023-01-20T03:14:23.714Z,-1.04
2023-01-20T03:16:50.905Z,-1.07
2023-01-20T03:19:20.509Z,-1.14
2023-01-20T03:21:48.368Z,-1.10
2023-01-20T03:24:15.495Z,-1.05
2023-01-20T03:26:42.394Z,-0.97
2023-01-20T03:29:13.091Z,-0.91
2023-01-20T03:31:46.114Z,-0.90
2023-01-20T03:34:17.994Z,-0.91
2023-01-20T03:36:46.267Z,-0.90
2023-01-20T03:39:13.711Z,-0.88
2023-01-20T03:42:09.095Z,-0.95
2023-01-20T03:45:10.672Z,-1.00
2023-01-20T03:47:49.546Z,-1.09
2023-01-20T03:50:25.435Z,-1.08
2023-01-20T03:52:55.682Z,-1.06
2023-01-20T03:55:30.201Z,-0.98
2023-01-20T03:58:13.912Z,-0.93
2023-01-20T04:00:44.840Z,-0.91
2023-01-20T04:03:21.748Z,-0.92
2023-01-20T04:05:50.657Z,-0.92
2023-01-20T04:08:20.824Z,-0.87
2023-01-20T04:10:48.859Z,-0.90
2023-01-20T04:13:16.235Z,-0.88
2023-01-20T04:15:45.407Z,-0.84
2023-01-20T04:18:14.508Z,-0.85
2023-01-20T04:20:42.721Z,-0.87
2023-01-20T04:23:17.307Z,-0.90
2023-01-20T04:25:44.679Z,-0.90
2023-01-20T04:28:11.391Z,-0.89
2023-01-20T04:30:38.460Z,-0.87
2023-01-20T04:33:05.295Z,-0.85
2023-01-20T04:35:31.994Z,-0.82
2023-01-20T04:37:58.758Z,-0.88
2023-01-20T04:40:25.572Z,-0.85
2023-01-20T04:42:52.348Z,-0.89
2023-01-20T04:45:19.073Z,-0.96
2023-01-20T04:47:45.902Z,-0.97
2023-01-20T04:50:14.259Z,-0.92
2023-01-20T04:52:41.266Z,-0.86
2023-01-20T04:55:14.542Z,-0.86
2023-01-20T04:57:41.789Z,-0.82
2023-01-20T05:00:09.407Z,-0.89
2023-01-20T05:02:36.514Z,-1.00
2023-01-20T05:05:03.534Z,-1.04
2023-01-20T05:07:30.457Z,-1.04
2023-01-20T05:09:57.416Z,-1.03
2023-01-20T05:12:24.392Z,-1.05
2023-01-20T05:14:51.355Z,-1.06
2023-01-20T05:17:18.629Z,-1.09
2023-01-20T05:19:45.812Z,-1.13
2023-01-20T05:22:12.850Z,-1.17
2023-01-20T05:24:39.789Z,-1.19
2023-01-20T05:27:12.721Z,-1.19
2023-01-20T05:29:39.915Z,-1.15
2023-01-20T05:32:06.923Z,-1.20
2023-01-20T05:34:34.907Z,-1.33
2023-01-20T05:37:01.712Z,-1.38
2023-01-20T05:39:28.547Z,-1.42
2023-01-20T05:41:55.272Z,-1.43
2023-01-20T05:44:22.041Z,-1.40
2023-01-20T05:46:48.933Z,-1.41
2023-01-20T05:49:15.670Z,-1.45
2023-01-20T05:51:42.370Z,-1.44
2023-01-20T05:54:09.116Z,-1.46
2023-01-20T05:56:35.930Z,-1.46
2023-01-20T05:59:02.915Z,-1.54
2023-01-20T06:01:29.792Z,-1.55
2023-01-20T06:03:56.739Z,-1.49
2023-01-20T06:06:23.819Z,-1.54
2023-01-20T06:08:52.935Z,-1.58
2023-01-20T06:11:20.599Z,-1.58
2023-01-20T06:13:48.575Z,-1.57
2023-01-20T06:16:17.897Z,-1.68
2023-01-20T06:18:45.135Z,-1.65
2023-01-20T06:21:12.169Z,-1.65
2023-01-20T06:24:02.810Z,-1.66
2023-01-20T06:26:29.714Z,-1.65
2023-01-20T06:29:01.321Z,-1.64
2023-01-20T06:31:28.605Z,-1.63
2023-01-20T06:33:56.372Z,-1.58
2023-01-20T06:36:23.398Z,-1.57
2023-01-20T06:38:53.106Z,-1.64
2023-01-20T06:41:21.154Z,-1.71
2023-01-20T06:43:50.130Z,-1.80
2023-01-20T06:46:17.347Z,-1.80
2023-01-20T06:48:45.245Z,-1.85
2023-01-20T06:51:17.618Z,-1.85
2023-01-20T06:53:45.096Z,-1.83
2023-01-20T06:56:13.404Z,-1.78
2023-01-20T06:58:40.818Z,-1.83
2023-01-20T07:01:14.422Z,-1.79
2023-01-20T07:03:44.572Z,-1.76
2023-01-20T07:06:27.632Z,-1.78
2023-01-20T07:08:55.848Z,-1.86
2023-01-20T07:11:24.351Z,-2.01
2023-01-20T07:13:51.093Z,-2.02
2023-01-20T07:16:18.033Z,-1.98
2023-01-20T07:18:47.901Z,-1.89
2023-01-20T07:21:14.927Z,-1.93
2023-01-20T07:23:41.988Z,-1.92
2023-01-20T07:26:12.298Z,-1.93
2023-01-20T07:28:39.217Z,-1.92
2023-01-20T07:31:08.201Z,-1.94
2023-01-20T07:33:35.424Z,-1.99
2023-01-20T07:36:02.416Z,-2.11
2023-01-20T07:38:30.208Z,-2.12
2023-01-20T07:41:03.447Z,-2.09
2023-01-20T07:43:32.016Z,-2.03
2023-01-20T07:46:01.146Z,-1.93
2023-01-20T07:48:30.509Z,-1.90
2023-01-20T07:51:02.819Z,-1.93
2023-01-20T07:53:30.449Z,-1.92
2023-01-20T07:56:01.861Z,-1.87
2023-01-20T07:58:29.195Z,-1.89
2023-01-20T08:00:56.923Z,-1.89
2023-01-20T08:03:26.005Z,-1.84
2023-01-20T08:05:54.068Z,-1.77
2023-01-20T08:08:21.028Z,-1.70
2023-01-20T08:10:54.060Z,-1.68
2023-01-20T08:13:20.818Z,-1.63
2023-01-20T08:15:47.661Z,-1.59
2023-01-20T08:18:14.405Z,-1.62
2023-01-20T08:20:41.875Z,-1.59
2023-01-20T08:23:08.733Z,-1.54
2023-01-20T08:25:35.562Z,-1.56
2023-01-20T08:28:04.367Z,-1.49
2023-01-20T08:30:32.427Z,-1.43
2023-01-20T08:32:59.363Z,-1.40
2023-01-20T08:35:26.458Z,-1.37
2023-01-20T08:37:53.351Z,-1.38
2023-01-20T08:40:20.681Z,-1.28
2023-01-20T08:42:47.511Z,-1.18
2023-01-20T08:45:15.012Z,-0.98
2023-01-20T08:47:45.939Z,-1.01
2023-01-20T08:50:15.110Z,-0.89
2023-01-20T08:52:42.746Z,-0.76
2023-01-20T08:55:10.405Z,-0.71
2023-01-20T08:57:37.509Z,-0.63
2023-01-20T09:00:07.527Z,-0.54
2023-01-20T09:02:34.275Z,-0.48
2023-01-20T09:05:01.057Z,-0.46
2023-01-20T09:07:27.848Z,-0.36
2023-01-20T09:09:54.757Z,-0.28
2023-01-20T09:12:21.603Z,-0.18
2023-01-20T09:14:48.305Z,0.02
2023-01-20T09:17:15.138Z,0.10
2023-01-20T09:19:41.875Z,0.20
2023-01-20T09:22:08.683Z,0.38
2023-01-20T09:24:35.425Z,0.56
2023-01-20T09:27:02.301Z,0.62
2023-01-20T09:29:29.116Z,0.66
2023-01-20T09:31:59.279Z,0.72
2023-01-20T09:34:29.434Z,0.86
2023-01-20T09:37:19.246Z,1.03
2023-01-20T09:40:05.181Z,1.17
2023-01-20T09:43:24.057Z,1.31
2023-01-20T09:46:07.576Z,1.48
2023-01-20T09:49:09.179Z,1.52
2023-01-20T09:52:11.389Z,1.71
2023-01-20T09:54:47.535Z,1.87
2023-01-20T09:57:14.964Z,2.01
2023-01-20T09:59:52.348Z,1.95
2023-01-20T10:02:26.552Z,2.00
2023-01-20T10:05:01.341Z,2.04
2023-01-20T10:07:39.052Z,2.15
2023-01-20T10:10:27.380Z,2.34
2023-01-20T10:13:03.475Z,2.40
2023-01-20T10:15:35.161Z,2.41
2023-01-20T10:18:12.647Z,2.44
2023-01-20T10:20:47.141Z,2.48
2023-01-20T10:23:16.567Z,2.54
2023-01-20T10:25:57.387Z,2.55
2023-01-20T10:28:30.807Z,2.65
2023-01-20T10:31:00.807Z,2.74
2023-01-20T10:33:34.439Z,2.78
2023-01-20T10:36:01.231Z,2.83
2023-01-20T10:38:40.166Z,2.88
2023-01-20T10:41:21.430Z,2.99
2023-01-20T10:43:48.562Z,3.08
2023-01-20T10:46:49.785Z,3.07
2023-01-20T10:49:41.214Z,3.09
2023-01-20T10:52:29.388Z,3.05
2023-01-20T10:55:40.618Z,3.26
2023-01-20T10:58:20.774Z,3.34
2023-01-20T11:00:49.757Z,3.38
2023-01-20T11:03:20.260Z,3.34
2023-01-20T11:05:51.729Z,3.47
2023-01-20T11:08:22.563Z,3.59
2023-01-20T11:10:56.374Z,3.70
2023-01-20T11:13:23.189Z,3.73
2023-01-20T11:15:54.807Z,3.75
2023-01-20T11:18:27.922Z,3.80
2023-01-20T11:21:04.759Z,3.99
2023-01-20T11:23:55.761Z,3.97
2023-01-20T11:26:28.155Z,4.12
2023-01-20T11:28:59.623Z,4.20
2023-01-20T11:31:43.768Z,4.26
2023-01-20T11:34:26.422Z,4.51
2023-01-20T11:37:05.574Z,4.64
2023-01-20T11:39:40.636Z,4.71
2023-01-20T11:42:16.474Z,4.71
2023-01-20T11:45:19.697Z,4.80
2023-01-20T11:48:16.125Z,5.00
2023-01-20T11:51:02.460Z,5.09
2023-01-20T11:53:32.278Z,5.35
2023-01-20T11:56:12.163Z,5.42
2023-01-20T11:58:58.551Z,5.58
2023-01-20T12:01:27.874Z,5.69
2023-01-20T12:04:18.490Z,5.41
2023-01-20T12:07:07.168Z,5.29
2023-01-20T12:09:38.346Z,5.03
2023-01-20T12:12:07.089Z,4.77
2023-01-20T12:14:54.567Z,4.58
2023-01-20T12:17:46.274Z,4.21
2023-01-20T12:20:20.891Z,3.94
2023-01-20T12:23:14.398Z,4.08
2023-01-20T12:25:52.099Z,5.06
2023-01-20T12:28:35.027Z,5.11
2023-01-20T12:31:04.162Z,5.04
2023-01-20T12:33:35.027Z,4.90
2023-01-20T12:36:07.802Z,5.18
2023-01-20T12:38:54.892Z,5.56
2023-01-20T12:41:39.896Z,5.71
2023-01-20T12:44:47.066Z,5.51
2023-01-20T12:47:48.144Z,5.73
2023-01-20T12:50:39.789Z,5.49
2023-01-20T12:53:31.383Z,5.23
2023-01-20T12:56:26.349Z,5.35
2023-01-20T12:59:07.342Z,5.57
2023-01-20T13:01:42.801Z,5.43
2023-01-20T13:04:41.708Z,5.15
2023-01-20T13:07:24.829Z,4.90
2023-01-20T13:10:09.783Z,4.46
2023-01-20T13:12:46.456Z,4.31
2023-01-20T13:15:19.583Z,4.18
2023-01-20T13:18:08.862Z,4.18
2023-01-20T13:20:40.517Z,4.20
2023-01-20T13:23:13.504Z,4.07
2023-01-20T13:25:41.458Z,4.10
2023-01-20T13:28:29.544Z,4.20
2023-01-20T13:31:00.805Z,4.19
2023-01-20T13:33:41.838Z,4.23
2023-01-20T13:36:15.084Z,4.16
2023-01-20T13:38:44.414Z,4.11
2023-01-20T13:41:13.392Z,4.08
2023-01-20T13:43:44.247Z,4.06
2023-01-20T13:46:15.265Z,4.03
2023-01-20T13:49:12.362Z,4.06
2023-01-20T13:51:42.822Z,4.05
2023-01-20T13:54:25.241Z,4.00
2023-01-20T13:56:52.725Z,4.00
2023-01-20T13:59:19.535Z,3.97
2023-01-20T14:01:46.274Z,4.00
2023-01-20T14:04:21.827Z,3.99
2023-01-20T14:06:53.156Z,4.03
2023-01-20T14:09:22.155Z,4.07
2023-01-20T14:11:51.146Z,4.01
2023-01-20T14:14:20.286Z,3.98
2023-01-20T14:16:47.311Z,3.99
2023-01-20T14:19:35.082Z,3.96
2023-01-20T14:22:15.921Z,3.92
2023-01-20T14:24:49.141Z,3.90
2023-01-20T14:27:28.257Z,3.82
2023-01-20T14:29:57.252Z,3.75
2023-01-20T14:32:25.646Z,3.65
2023-01-20T14:34:53.274Z,3.65
2023-01-20T14:37:19.960Z,3.69
2023-01-20T14:39:50.577Z,3.70
2023-01-20T14:42:22.684Z,3.62
2023-01-20T14:44:51.328Z,3.57
2023-01-20T14:47:20.037Z,3.54
2023-01-20T14:49:48.694Z,3.51
2023-01-20T14:52:22.404Z,3.49
2023-01-20T14:54:49.995Z,3.46
2023-01-20T14:57:27.489Z,3.41
2023-01-20T15:00:14.621Z,3.35
2023-01-20T15:03:01.400Z,3.34
2023-01-20T15:05:38.041Z,3.34
2023-01-20T15:08:32.655Z,3.41
2023-01-20T15:11:18.483Z,3.42
2023-01-20T15:13:52.883Z,3.33
2023-01-20T15:16:36.480Z,3.21
2023-01-20T15:19:19.990Z,3.20
2023-01-20T15:21:50.030Z,3.21
2023-01-20T15:24:21.271Z,3.13
2023-01-20T15:26:51.209Z,2.98
2023-01-20T15:29:31.043Z,2.97
2023-01-20T15:32:00.471Z,2.92
2023-01-20T15:34:28.232Z,2.88
2023-01-20T15:36:56.088Z,2.75
2023-01-20T15:39:30.189Z,2.67
2023-01-20T15:41:57.547Z,2.63
2023-01-20T15:44:25.910Z,2.53
2023-01-20T15:46:56.797Z,2.45
2023-01-20T15:49:25.316Z,2.40
2023-01-20T15:51:53.055Z,2.30
2023-01-20T15:54:21.126Z,2.26
2023-01-20T15:56:47.907Z,2.15
2023-01-20T15:59:17.577Z,2.05
2023-01-20T16:01:49.828Z,2.00
2023-01-20T16:04:17.178Z,1.98
2023-01-20T16:06:44.721Z,2.00
2023-01-20T16:09:25.745Z,2.05
2023-01-20T16:11:53.118Z,1.97
2023-01-20T16:14:19.887Z,1.97
2023-01-20T16:16:46.829Z,1.94
2023-01-20T16:19:14.653Z,1.87
2023-01-20T16:21:43.753Z,1.88
2023-01-20T16:24:12.453Z,1.81
2023-01-20T16:26:39.921Z,1.78
2023-01-20T16:29:08.968Z,2.11
2023-01-20T16:31:35.928Z,2.26
2023-01-20T16:34:04.252Z,2.23
2023-01-20T16:36:31.034Z,2.16
2023-01-20T16:38:57.967Z,2.15
2023-01-20T16:41:28.016Z,2.12
2023-01-20T16:43:56.123Z,2.02
2023-01-20T16:46:25.671Z,1.87
2023-01-20T16:48:54.332Z,1.82
2023-01-20T16:51:23.197Z,1.86
2023-01-20T16:53:50.110Z,1.94
2023-01-20T16:56:19.986Z,2.00
2023-01-20T16:58:47.753Z,2.04
2023-01-20T17:01:14.538Z,1.99
2023-01-20T17:03:42.459Z,1.89
2023-01-20T17:06:18.037Z,1.84
2023-01-20T17:08:46.487Z,1.81
2023-01-20T17:11:19.669Z,1.82
2023-01-20T17:13:46.809Z,1.82
2023-01-20T17:16:14.173Z,1.80
2023-01-20T17:18:48.185Z,1.84
2023-01-20T17:21:15.138Z,1.86
2023-01-20T17:23:44.010Z,1.94
2023-01-20T17:26:10.882Z,1.95
2023-01-20T17:28:37.700Z,1.90
2023-01-20T17:31:06.303Z,1.90
2023-01-20T17:33:33.982Z,1.86
2023-01-20T17:36:03.940Z,1.77
2023-01-20T17:38:33.386Z,1.73
2023-01-20T17:41:04.263Z,1.70
2023-01-20T17:43:40.264Z,1.57
2023-01-20T17:46:22.318Z,1.51
2023-01-20T17:48:50.138Z,1.50
2023-01-20T17:51:28.284Z,1.45
2023-01-20T17:53:57.512Z,1.44
2023-01-20T17:56:24.843Z,1.48
2023-01-20T17:58:52.060Z,1.43
2023-01-20T18:01:27.311Z,1.45
2023-01-20T18:03:56.534Z,1.45
2023-01-20T18:06:24.879Z,1.43
2023-01-20T18:08:56.921Z,1.44
2023-01-20T18:11:25.258Z,1.40
2023-01-20T18:13:55.072Z,1.42
2023-01-20T18:16:24.327Z,1.43
2023-01-20T18:18:51.235Z,1.52
2023-01-20T18:21:23.409Z,1.57
2023-01-20T18:23:53.053Z,1.59
2023-01-20T18:26:22.197Z,1.60
2023-01-20T18:28:49.904Z,1.63
2023-01-20T18:31:18.975Z,1.68
2023-01-20T18:33:48.644Z,1.70
2023-01-20T18:36:23.995Z,1.64
2023-01-20T18:38:52.596Z,1.57
2023-01-20T18:41:20.522Z,1.53
2023-01-20T18:43:48.218Z,1.51
2023-01-20T18:46:16.021Z,1.48
2023-01-20T18:48:49.049Z,1.48
2023-01-20T18:51:17.809Z,1.54
2023-01-20T18:53:45.936Z,1.50
2023-01-20T18:56:15.199Z,1.51
2023-01-20T18:58:47.056Z,1.46
2023-01-20T19:01:20.029Z,1.53
2023-01-20T19:03:49.592Z,1.50
2023-01-20T19:06:25.139Z,1.57
2023-01-20T19:08:53.071Z,1.65
2023-01-20T19:11:25.300Z,1.55
2023-01-20T19:13:53.659Z,1.52
2023-01-20T19:16:27.435Z,1.53
2023-01-20T19:18:57.400Z,1.49
2023-01-20T19:21:26.060Z,1.54
2023-01-20T19:24:01.405Z,1.56
2023-01-20T19:26:29.093Z,1.56
2023-01-20T19:28:58.089Z,1.60
2023-01-20T19:31:25.463Z,1.65
2023-01-20T19:33:52.766Z,1.66
2023-01-20T19:36:20.675Z,1.69
2023-01-20T19:38:47.893Z,1.73
2023-01-20T19:41:17.760Z,1.72
2023-01-20T19:43:47.888Z,1.69
2023-01-20T19:46:18.732Z,1.68
2023-01-20T19:48:45.650Z,1.69
2023-01-20T19:51:15.281Z,1.74
2023-01-20T19:53:43.707Z,1.84
2023-01-20T19:56:13.623Z,1.93
2023-01-20T19:58:41.672Z,1.94
2023-01-20T20:01:10.756Z,1.94
2023-01-20T20:03:38.158Z,1.94
2023-01-20T20:06:07.359Z,1.92
2023-01-20T20:08:37.429Z,1.90
2023-01-20T20:11:04.290Z,1.86
2023-01-20T20:13:31.155Z,1.86
2023-01-20T20:16:02.770Z,1.82
2023-01-20T20:18:29.866Z,1.83
2023-01-20T20:20:56.756Z,1.82
2023-01-20T20:23:24.092Z,1.82
2023-01-20T20:26:00.496Z,1.84
2023-01-20T20:28:28.630Z,1.75
2023-01-20T20:30:56.009Z,1.71
2023-01-20T20:33:24.518Z,1.71
2023-01-20T20:35:51.674Z,1.72
2023-01-20T20:38:19.519Z,1.77
2023-01-20T20:40:46.543Z,1.77
2023-01-20T20:43:13.715Z,1.87
2023-01-20T20:45:40.901Z,1.85
2023-01-20T20:48:10.202Z,1.85
2023-01-20T20:50:37.143Z,1.81
2023-01-20T20:53:04.208Z,1.64
2023-01-20T20:55:31.467Z,1.67
2023-01-20T20:57:58.245Z,1.68
2023-01-20T21:00:28.122Z,1.69
2023-01-20T21:02:57.536Z,1.67
2023-01-20T21:05:24.481Z,1.74
2023-01-20T21:07:51.751Z,1.81
2023-01-20T21:10:21.120Z,1.87
2023-01-20T21:12:52.102Z,1.88
2023-01-20T21:15:19.907Z,1.83
2023-01-20T21:17:46.687Z,1.72
2023-01-20T21:20:13.721Z,1.65
2023-01-20T21:22:40.831Z,1.63
2023-01-20T21:25:08.326Z,1.67
2023-01-20T21:27:36.282Z,1.71
2023-01-20T21:30:03.219Z,1.72
2023-01-20T21:32:30.857Z,1.71
2023-01-20T21:34:58.923Z,1.72
2023-01-20T21:37:25.728Z,1.74
2023-01-20T21:39:52.441Z,1.75
2023-01-20T21:42:19.121Z,1.78
2023-01-20T21:44:45.907Z,1.80
2023-01-20T21:47:12.716Z,1.84
2023-01-20T21:49:58.073Z,1.84
2023-01-20T21:52:45.254Z,1.88
2023-01-20T21:55:26.208Z,1.83
2023-01-20T21:57:53.136Z,1.79
2023-01-20T22:00:20.489Z,1.74
2023-01-20T22:02:48.924Z,1.68
2023-01-20T22:05:16.198Z,1.60
2023-01-20T22:07:43.070Z,1.54
2023-01-20T22:10:10.960Z,1.51
2023-01-20T22:12:38.067Z,1.54
2023-01-20T22:15:05.460Z,1.54
2023-01-20T22:17:32.385Z,1.49
2023-01-20T22:19:59.462Z,1.50
2023-01-20T22:22:26.294Z,1.45
2023-01-20T22:24:53.671Z,1.39
2023-01-20T22:27:20.408Z,1.31
2023-01-20T22:29:47.245Z,1.28
2023-01-20T22:32:14.140Z,1.28
2023-01-20T22:34:42.201Z,1.23
2023-01-20T22:37:09.347Z,1.23
2023-01-20T22:39:36.079Z,1.22
2023-01-20T22:42:02.969Z,1.25
2023-01-20T22:44:29.743Z,1.26
2023-01-20T22:46:56.470Z,1.26
2023-01-20T22:49:23.302Z,1.02
2023-01-20T22:51:50.453Z,1.08
2023-01-20T22:54:17.219Z,1.00
2023-01-20T22:56:44.103Z,0.99
2023-01-20T22:59:13.741Z,0.99
2023-01-20T23:01:40.919Z,0.88
2023-01-20T23:04:11.819Z,0.97
2023-01-20T23:06:39.521Z,0.99
2023-01-20T23:09:09.150Z,0.90
2023-01-20T23:11:38.138Z,0.77
2023-01-20T23:14:06.306Z,0.82
2023-01-20T23:16:33.159Z,0.95
2023-01-20T23:18:59.908Z,0.97
2023-01-20T23:21:26.708Z,0.87
2023-01-20T23:23:56.319Z,0.81
2023-01-20T23:26:29.048Z,0.79
2023-01-20T23:28:56.391Z,0.79
2023-01-20T23:31:25.175Z,0.85
2023-01-20T23:33:53.901Z,0.87
2023-01-20T23:36:25.773Z,0.87
2023-01-20T23:38:54.243Z,0.83
2023-01-20T23:41:21.407Z,0.79
2023-01-20T23:43:48.204Z,0.82
2023-01-20T23:46:15.164Z,0.81
2023-01-20T23:48:42.006Z,0.82
2023-01-20T23:51:09.607Z,0.66
2023-01-20T23:53:38.806Z,0.68
2023-01-20T23:56:10.546Z,0.53
2023-01-20T23:58:37.567Z,0.48
